Magnetawan, Canada
Current Conditions -  °F | °C
As of 2:00 PM on Thursday 30 Oct 2014 (Local Time) from CYYB Reporting Station
Overcast Overcast  
Wind Chill: 36°   Ceiling: 2300
Heat Index: 36°   Visibility: 15mi
Dew Point: 27°   Wind: 2mph
Humidity: 70%   Direction: NA
Pressure: 30.01"   Gusts: NA
Location:  45.67°N, 79.63°W
Report Text: CYYB 301800Z VRB02KT 15SM OVC023 02/M03 A3001 RMK SC8 SLP177
Loading
Personal Weather Stations






























Interactive Weather Map
Tropical Storm Tracking
New forecast layout! Learn more

10-Day Weather Forecast

Advertisements
Track Severe Weather on mobile